sensor_id;sensor_type;location;lat;lon;timestamp;temperature;humidity
62424;DHT22;48463;43.604;3.872;2023-06-10T00:01:38;20.80;99.90
62424;DHT22;48463;43.604;3.872;2023-06-10T00:04:04;20.80;99.90
62424;DHT22;48463;43.604;3.872;2023-06-10T00:06:30;20.70;99.90
62424;DHT22;48463;43.604;3.872;2023-06-10T00:09:03;20.80;99.90
62424;DHT22;48463;43.604;3.872;2023-06-10T00:11:35;20.80;99.90
62424;DHT22;48463;43.604;3.872;2023-06-10T00:14:01;20.70;99.90
62424;DHT22;48463;43.604;3.872;2023-06-10T00:16:27;20.70;99.90
62424;DHT22;48463;43.604;3.872;2023-06-10T00:18:53;20.70;99.90
62424;DHT22;48463;43.604;3.872;2023-06-10T00:21:32;20.60;99.90
62424;DHT22;48463;43.604;3.872;2023-06-10T00:24:09;20.70;99.90
62424;DHT22;48463;43.604;3.872;2023-06-10T00:26:41;20.70;99.90
62424;DHT22;48463;43.604;3.872;2023-06-10T00:29:07;20.70;99.90
62424;DHT22;48463;43.604;3.872;2023-06-10T00:31:37;20.60;99.90
62424;DHT22;48463;43.604;3.872;2023-06-10T00:34:03;20.60;99.90
62424;DHT22;48463;43.604;3.872;2023-06-10T00:36:29;20.60;99.90
62424;DHT22;48463;43.604;3.872;2023-06-10T00:38:56;20.60;99.90
62424;DHT22;48463;43.604;3.872;2023-06-10T00:41:23;20.50;99.90
62424;DHT22;48463;43.604;3.872;2023-06-10T00:43:48;20.50;99.90
62424;DHT22;48463;43.604;3.872;2023-06-10T00:46:15;20.50;99.90
62424;DHT22;48463;43.604;3.872;2023-06-10T00:48:42;20.50;99.90
62424;DHT22;48463;43.604;3.872;2023-06-10T00:51:09;20.40;99.90
62424;DHT22;48463;43.604;3.872;2023-06-10T00:53:36;20.40;99.90
62424;DHT22;48463;43.604;3.872;2023-06-10T00:56:04;20.40;99.90
62424;DHT22;48463;43.604;3.872;2023-06-10T00:58:30;20.30;99.90
62424;DHT22;48463;43.604;3.872;2023-06-10T01:00:56;20.40;99.90
62424;DHT22;48463;43.604;3.872;2023-06-10T01:03:23;20.30;99.90
62424;DHT22;48463;43.604;3.872;2023-06-10T01:06:02;20.30;99.90
62424;DHT22;48463;43.604;3.872;2023-06-10T01:09:18;20.30;99.90
62424;DHT22;48463;43.604;3.872;2023-06-10T01:11:52;20.30;99.90
62424;DHT22;48463;43.604;3.872;2023-06-10T01:14:22;20.30;99.90
62424;DHT22;48463;43.604;3.872;2023-06-10T01:16:48;20.30;99.90
62424;DHT22;48463;43.604;3.872;2023-06-10T01:19:15;20.30;99.90
62424;DHT22;48463;43.604;3.872;2023-06-10T01:21:43;20.30;99.90
62424;DHT22;48463;43.604;3.872;2023-06-10T01:24:14;20.30;99.90
62424;DHT22;48463;43.604;3.872;2023-06-10T01:26:45;20.20;99.90
62424;DHT22;48463;43.604;3.872;2023-06-10T01:29:16;20.20;99.90
62424;DHT22;48463;43.604;3.872;2023-06-10T01:32:01;20.20;99.90
62424;DHT22;48463;43.604;3.872;2023-06-10T01:34:31;20.10;99.90
62424;DHT22;48463;43.604;3.872;2023-06-10T01:36:58;20.10;99.90
62424;DHT22;48463;43.604;3.872;2023-06-10T01:39:25;20.10;99.90
62424;DHT22;48463;43.604;3.872;2023-06-10T01:41:52;20.10;99.90
62424;DHT22;48463;43.604;3.872;2023-06-10T01:44:20;20.10;99.90
62424;DHT22;48463;43.604;3.872;2023-06-10T01:46:45;20.10;99.90
62424;DHT22;48463;43.604;3.872;2023-06-10T01:49:12;20.10;99.90
62424;DHT22;48463;43.604;3.872;2023-06-10T01:51:37;20.20;99.90
62424;DHT22;48463;43.604;3.872;2023-06-10T01:54:03;20.20;99.90
62424;DHT22;48463;43.604;3.872;2023-06-10T01:56:29;20.30;99.90
62424;DHT22;48463;43.604;3.872;2023-06-10T01:58:54;20.40;99.90
62424;DHT22;48463;43.604;3.872;2023-06-10T02:01:25;20.30;99.90
62424;DHT22;48463;43.604;3.872;2023-06-10T02:03:50;20.30;99.90
62424;DHT22;48463;43.604;3.872;2023-06-10T02:06:16;20.30;99.90
62424;DHT22;48463;43.604;3.872;2023-06-10T02:08:42;20.30;99.90
62424;DHT22;48463;43.604;3.872;2023-06-10T02:11:08;20.30;99.90
62424;DHT22;48463;43.604;3.872;2023-06-10T02:13:34;20.30;99.90
62424;DHT22;48463;43.604;3.872;2023-06-10T02:16:00;20.30;99.90
62424;DHT22;48463;43.604;3.872;2023-06-10T02:18:26;20.40;99.90
62424;DHT22;48463;43.604;3.872;2023-06-10T02:20:53;20.30;99.90
62424;DHT22;48463;43.604;3.872;2023-06-10T02:23:19;20.30;99.90
62424;DHT22;48463;43.604;3.872;2023-06-10T02:25:45;20.30;99.90
62424;DHT22;48463;43.604;3.872;2023-06-10T02:28:12;20.30;99.90
62424;DHT22;48463;43.604;3.872;2023-06-10T02:30:42;20.30;99.90
62424;DHT22;48463;43.604;3.872;2023-06-10T02:33:08;20.30;99.90
62424;DHT22;48463;43.604;3.872;2023-06-10T02:35:38;20.30;99.90
62424;DHT22;48463;43.604;3.872;2023-06-10T02:38:03;20.30;99.90
62424;DHT22;48463;43.604;3.872;2023-06-10T02:40:29;20.30;99.90
62424;DHT22;48463;43.604;3.872;2023-06-10T02:42:55;20.30;99.90
62424;DHT22;48463;43.604;3.872;2023-06-10T02:45:21;20.20;99.90
62424;DHT22;48463;43.604;3.872;2023-06-10T02:47:47;20.10;99.90
62424;DHT22;48463;43.604;3.872;2023-06-10T02:50:12;20.10;99.90
62424;DHT22;48463;43.604;3.872;2023-06-10T02:52:38;20.10;99.90
62424;DHT22;48463;43.604;3.872;2023-06-10T02:55:04;20.20;99.90
62424;DHT22;48463;43.604;3.872;2023-06-10T02:57:30;20.10;99.90
62424;DHT22;48463;43.604;3.872;2023-06-10T02:59:56;20.20;99.90
62424;DHT22;48463;43.604;3.872;2023-06-10T03:02:24;20.20;99.90
62424;DHT22;48463;43.604;3.872;2023-06-10T03:04:56;20.30;99.90
62424;DHT22;48463;43.604;3.872;2023-06-10T03:07:22;20.40;99.90
62424;DHT22;48463;43.604;3.872;2023-06-10T03:09:48;20.40;99.90
62424;DHT22;48463;43.604;3.872;2023-06-10T03:12:15;20.50;99.90
62424;DHT22;48463;43.604;3.872;2023-06-10T03:14:41;20.50;99.90
62424;DHT22;48463;43.604;3.872;2023-06-10T03:17:07;20.50;99.90
62424;DHT22;48463;43.604;3.872;2023-06-10T03:19:34;20.40;99.90
62424;DHT22;48463;43.604;3.872;2023-06-10T03:22:13;20.40;99.90
62424;DHT22;48463;43.604;3.872;2023-06-10T03:24:40;20.30;99.90
62424;DHT22;48463;43.604;3.872;2023-06-10T03:27:10;20.30;99.90
62424;DHT22;48463;43.604;3.872;2023-06-10T03:29:37;20.30;99.90
62424;DHT22;48463;43.604;3.872;2023-06-10T03:32:03;20.30;99.90
62424;DHT22;48463;43.604;3.872;2023-06-10T03:34:29;20.20;99.90
62424;DHT22;48463;43.604;3.872;2023-06-10T03:36:56;20.20;99.90
62424;DHT22;48463;43.604;3.872;2023-06-10T03:39:21;20.20;99.90
62424;DHT22;48463;43.604;3.872;2023-06-10T03:41:49;20.10;99.90
62424;DHT22;48463;43.604;3.872;2023-06-10T03:44:14;20.10;99.90
62424;DHT22;48463;43.604;3.872;2023-06-10T03:46:41;20.10;99.90
62424;DHT22;48463;43.604;3.872;2023-06-10T03:49:07;20.30;99.90
62424;DHT22;48463;43.604;3.872;2023-06-10T03:51:32;20.30;99.90
62424;DHT22;48463;43.604;3.872;2023-06-10T03:53:58;20.30;99.90
62424;DHT22;48463;43.604;3.872;2023-06-10T03:56:24;20.40;99.90
62424;DHT22;48463;43.604;3.872;2023-06-10T03:58:51;20.40;99.90
62424;DHT22;48463;43.604;3.872;2023-06-10T04:01:16;20.40;99.90
62424;DHT22;48463;43.604;3.872;2023-06-10T04:03:46;20.40;99.90
62424;DHT22;48463;43.604;3.872;2023-06-10T04:06:15;20.30;99.90
62424;DHT22;48463;43.604;3.872;2023-06-10T04:08:41;20.20;99.90
62424;DHT22;48463;43.604;3.872;2023-06-10T04:11:08;20.10;99.90
62424;DHT22;48463;43.604;3.872;2023-06-10T04:13:34;20.10;99.90
62424;DHT22;48463;43.604;3.872;2023-06-10T04:15:59;20.00;99.90
62424;DHT22;48463;43.604;3.872;2023-06-10T04:18:25;20.10;99.90
62424;DHT22;48463;43.604;3.872;2023-06-10T04:20:51;20.10;99.90
62424;DHT22;48463;43.604;3.872;2023-06-10T04:23:17;20.10;99.90
62424;DHT22;48463;43.604;3.872;2023-06-10T04:25:42;20.20;99.90
62424;DHT22;48463;43.604;3.872;2023-06-10T04:28:08;20.00;99.90
62424;DHT22;48463;43.604;3.872;2023-06-10T04:30:34;19.90;99.90
62424;DHT22;48463;43.604;3.872;2023-06-10T04:32:59;19.80;99.90
62424;DHT22;48463;43.604;3.872;2023-06-10T04:35:25;19.70;99.90
62424;DHT22;48463;43.604;3.872;2023-06-10T04:37:53;19.70;99.90
62424;DHT22;48463;43.604;3.872;2023-06-10T04:40:19;19.80;99.90
62424;DHT22;48463;43.604;3.872;2023-06-10T04:42:45;19.70;99.90
62424;DHT22;48463;43.604;3.872;2023-06-10T04:45:11;19.80;99.90
62424;DHT22;48463;43.604;3.872;2023-06-10T04:47:36;19.60;99.90
62424;DHT22;48463;43.604;3.872;2023-06-10T04:50:02;19.70;99.90
62424;DHT22;48463;43.604;3.872;2023-06-10T04:52:28;19.70;99.90
62424;DHT22;48463;43.604;3.872;2023-06-10T04:54:54;19.80;99.90
62424;DHT22;48463;43.604;3.872;2023-06-10T04:57:21;19.80;99.90
62424;DHT22;48463;43.604;3.872;2023-06-10T04:59:47;19.90;99.90
62424;DHT22;48463;43.604;3.872;2023-06-10T05:02:13;19.90;99.90
62424;DHT22;48463;43.604;3.872;2023-06-10T05:04:39;20.00;99.90
62424;DHT22;48463;43.604;3.872;2023-06-10T05:07:05;20.00;99.90
62424;DHT22;48463;43.604;3.872;2023-06-10T05:09:31;20.00;99.90
62424;DHT22;48463;43.604;3.872;2023-06-10T05:11:58;20.00;99.90
62424;DHT22;48463;43.604;3.872;2023-06-10T05:14:23;19.90;99.90
62424;DHT22;48463;43.604;3.872;2023-06-10T05:16:49;19.90;99.90
62424;DHT22;48463;43.604;3.872;2023-06-10T05:19:14;20.00;99.90
62424;DHT22;48463;43.604;3.872;2023-06-10T05:21:41;19.80;99.90
62424;DHT22;48463;43.604;3.872;2023-06-10T05:24:08;20.00;99.90
62424;DHT22;48463;43.604;3.872;2023-06-10T05:26:33;20.00;99.90
62424;DHT22;48463;43.604;3.872;2023-06-10T05:29:06;20.10;99.90
62424;DHT22;48463;43.604;3.872;2023-06-10T05:31:32;20.20;99.90
62424;DHT22;48463;43.604;3.872;2023-06-10T05:33:58;20.20;99.90
62424;DHT22;48463;43.604;3.872;2023-06-10T05:36:24;20.30;99.90
62424;DHT22;48463;43.604;3.872;2023-06-10T05:38:52;20.10;99.90
62424;DHT22;48463;43.604;3.872;2023-06-10T05:41:18;20.00;99.90
62424;DHT22;48463;43.604;3.872;2023-06-10T05:43:44;20.00;99.90
62424;DHT22;48463;43.604;3.872;2023-06-10T05:46:10;20.00;99.90
62424;DHT22;48463;43.604;3.872;2023-06-10T05:48:37;20.00;99.90
62424;DHT22;48463;43.604;3.872;2023-06-10T05:51:03;20.10;99.90
62424;DHT22;48463;43.604;3.872;2023-06-10T05:53:28;20.20;99.90
62424;DHT22;48463;43.604;3.872;2023-06-10T05:55:54;20.40;99.90
62424;DHT22;48463;43.604;3.872;2023-06-10T05:58:23;20.40;99.90
62424;DHT22;48463;43.604;3.872;2023-06-10T06:00:49;20.30;99.90
62424;DHT22;48463;43.604;3.872;2023-06-10T06:03:14;20.30;99.90
62424;DHT22;48463;43.604;3.872;2023-06-10T06:05:42;20.40;99.90
62424;DHT22;48463;43.604;3.872;2023-06-10T06:08:08;20.60;99.90
62424;DHT22;48463;43.604;3.872;2023-06-10T06:10:34;20.70;99.90
62424;DHT22;48463;43.604;3.872;2023-06-10T06:13:00;20.80;99.90
62424;DHT22;48463;43.604;3.872;2023-06-10T06:15:25;20.70;99.90
62424;DHT22;48463;43.604;3.872;2023-06-10T06:17:52;20.70;99.90
62424;DHT22;48463;43.604;3.872;2023-06-10T06:20:19;20.60;99.90
62424;DHT22;48463;43.604;3.872;2023-06-10T06:22:45;20.80;99.90
62424;DHT22;48463;43.604;3.872;2023-06-10T06:25:12;20.90;99.90
62424;DHT22;48463;43.604;3.872;2023-06-10T06:27:38;21.10;99.90
62424;DHT22;48463;43.604;3.872;2023-06-10T06:30:04;21.20;99.90
62424;DHT22;48463;43.604;3.872;2023-06-10T06:32:30;21.40;99.90
62424;DHT22;48463;43.604;3.872;2023-06-10T06:34:56;21.40;99.90
62424;DHT22;48463;43.604;3.872;2023-06-10T06:37:23;21.50;99.90
62424;DHT22;48463;43.604;3.872;2023-06-10T06:39:53;21.50;99.90
62424;DHT22;48463;43.604;3.872;2023-06-10T06:42:20;21.50;99.90
62424;DHT22;48463;43.604;3.872;2023-06-10T06:44:47;21.50;99.90
62424;DHT22;48463;43.604;3.872;2023-06-10T06:47:13;21.70;99.90
62424;DHT22;48463;43.604;3.872;2023-06-10T06:49:38;21.80;99.90
62424;DHT22;48463;43.604;3.872;2023-06-10T06:52:05;21.70;99.90
62424;DHT22;48463;43.604;3.872;2023-06-10T06:54:31;21.60;99.90
62424;DHT22;48463;43.604;3.872;2023-06-10T06:56:57;21.70;99.90
62424;DHT22;48463;43.604;3.872;2023-06-10T06:59:22;21.70;99.90
62424;DHT22;48463;43.604;3.872;2023-06-10T07:01:49;21.80;99.90
62424;DHT22;48463;43.604;3.872;2023-06-10T07:04:15;22.10;99.90
62424;DHT22;48463;43.604;3.872;2023-06-10T07:06:41;22.00;99.90
62424;DHT22;48463;43.604;3.872;2023-06-10T07:09:10;22.00;99.90
62424;DHT22;48463;43.604;3.872;2023-06-10T07:11:35;22.00;99.90
62424;DHT22;48463;43.604;3.872;2023-06-10T07:14:01;22.20;99.90
62424;DHT22;48463;43.604;3.872;2023-06-10T07:16:26;22.40;99.90
62424;DHT22;48463;43.604;3.872;2023-06-10T07:18:53;22.50;99.90
62424;DHT22;48463;43.604;3.872;2023-06-10T07:21:19;22.50;99.90
62424;DHT22;48463;43.604;3.872;2023-06-10T07:23:45;22.60;99.90
62424;DHT22;48463;43.604;3.872;2023-06-10T07:26:11;22.70;99.90
62424;DHT22;48463;43.604;3.872;2023-06-10T07:28:39;22.60;99.90
62424;DHT22;48463;43.604;3.872;2023-06-10T07:31:05;22.70;99.90
62424;DHT22;48463;43.604;3.872;2023-06-10T07:33:31;22.80;99.90
62424;DHT22;48463;43.604;3.872;2023-06-10T07:35:57;22.80;99.90
62424;DHT22;48463;43.604;3.872;2023-06-10T07:38:22;22.90;99.90
62424;DHT22;48463;43.604;3.872;2023-06-10T07:40:48;22.90;99.90
62424;DHT22;48463;43.604;3.872;2023-06-10T07:43:14;22.70;99.90
62424;DHT22;48463;43.604;3.872;2023-06-10T07:45:40;22.70;99.90
62424;DHT22;48463;43.604;3.872;2023-06-10T07:48:06;22.80;99.90
62424;DHT22;48463;43.604;3.872;2023-06-10T07:50:32;22.80;99.90
62424;DHT22;48463;43.604;3.872;2023-06-10T07:52:58;22.60;99.90
62424;DHT22;48463;43.604;3.872;2023-06-10T07:55:25;22.50;99.90
62424;DHT22;48463;43.604;3.872;2023-06-10T07:57:53;22.80;99.90
62424;DHT22;48463;43.604;3.872;2023-06-10T08:00:19;23.00;99.90
62424;DHT22;48463;43.604;3.872;2023-06-10T08:02:45;23.20;99.90
62424;DHT22;48463;43.604;3.872;2023-06-10T08:05:11;23.40;99.90
62424;DHT22;48463;43.604;3.872;2023-06-10T08:07:37;23.40;99.90
62424;DHT22;48463;43.604;3.872;2023-06-10T08:10:04;23.50;99.90
62424;DHT22;48463;43.604;3.872;2023-06-10T08:12:31;23.70;99.90
62424;DHT22;48463;43.604;3.872;2023-06-10T08:14:57;23.70;99.90
62424;DHT22;48463;43.604;3.872;2023-06-10T08:17:22;23.90;99.90
62424;DHT22;48463;43.604;3.872;2023-06-10T08:19:48;24.00;99.90
62424;DHT22;48463;43.604;3.872;2023-06-10T08:22:14;23.80;99.90
62424;DHT22;48463;43.604;3.872;2023-06-10T08:24:40;23.90;99.90
62424;DHT22;48463;43.604;3.872;2023-06-10T08:27:06;24.10;99.90
62424;DHT22;48463;43.604;3.872;2023-06-10T08:29:32;24.20;99.90
62424;DHT22;48463;43.604;3.872;2023-06-10T08:31:58;24.40;99.90
62424;DHT22;48463;43.604;3.872;2023-06-10T08:34:24;24.40;99.90
62424;DHT22;48463;43.604;3.872;2023-06-10T08:36:49;24.60;99.90
62424;DHT22;48463;43.604;3.872;2023-06-10T08:39:21;24.30;99.90
62424;DHT22;48463;43.604;3.872;2023-06-10T08:42:23;24.70;99.90
62424;DHT22;48463;43.604;3.872;2023-06-10T08:44:54;24.70;99.90
62424;DHT22;48463;43.604;3.872;2023-06-10T08:47:25;24.60;99.90
62424;DHT22;48463;43.604;3.872;2023-06-10T08:49:53;24.60;99.90
62424;DHT22;48463;43.604;3.872;2023-06-10T08:52:25;24.40;99.90
62424;DHT22;48463;43.604;3.872;2023-06-10T08:55:04;24.30;99.90
62424;DHT22;48463;43.604;3.872;2023-06-10T08:57:32;23.90;99.90
62424;DHT22;48463;43.604;3.872;2023-06-10T08:59:58;23.90;99.90
62424;DHT22;48463;43.604;3.872;2023-06-10T09:02:24;24.00;99.90
62424;DHT22;48463;43.604;3.872;2023-06-10T09:04:50;23.80;99.90
62424;DHT22;48463;43.604;3.872;2023-06-10T09:07:17;23.80;99.90
62424;DHT22;48463;43.604;3.872;2023-06-10T09:09:45;24.00;99.90
62424;DHT22;48463;43.604;3.872;2023-06-10T09:12:13;24.40;99.90
62424;DHT22;48463;43.604;3.872;2023-06-10T09:14:41;24.80;99.90
62424;DHT22;48463;43.604;3.872;2023-06-10T09:17:06;25.00;99.90
62424;DHT22;48463;43.604;3.872;2023-06-10T09:19:32;25.20;99.90
62424;DHT22;48463;43.604;3.872;2023-06-10T09:21:59;25.20;99.90
62424;DHT22;48463;43.604;3.872;2023-06-10T09:24:25;25.40;99.90
62424;DHT22;48463;43.604;3.872;2023-06-10T09:27:07;24.90;99.90
62424;DHT22;48463;43.604;3.872;2023-06-10T09:29:53;24.80;99.90
62424;DHT22;48463;43.604;3.872;2023-06-10T09:32:20;24.90;99.90
62424;DHT22;48463;43.604;3.872;2023-06-10T09:34:47;25.40;99.90
62424;DHT22;48463;43.604;3.872;2023-06-10T09:37:13;25.50;99.90
62424;DHT22;48463;43.604;3.872;2023-06-10T09:39:43;25.40;99.90
62424;DHT22;48463;43.604;3.872;2023-06-10T09:42:18;25.80;99.90
62424;DHT22;48463;43.604;3.872;2023-06-10T09:44:57;25.70;99.90
62424;DHT22;48463;43.604;3.872;2023-06-10T09:47:27;25.40;99.90
62424;DHT22;48463;43.604;3.872;2023-06-10T09:49:55;25.80;99.90
62424;DHT22;48463;43.604;3.872;2023-06-10T09:52:23;25.90;99.90
62424;DHT22;48463;43.604;3.872;2023-06-10T09:54:50;26.00;99.90
62424;DHT22;48463;43.604;3.872;2023-06-10T09:57:21;26.30;99.90
62424;DHT22;48463;43.604;3.872;2023-06-10T09:59:48;26.40;99.90
62424;DHT22;48463;43.604;3.872;2023-06-10T10:02:18;26.20;99.90
62424;DHT22;48463;43.604;3.872;2023-06-10T10:04:44;25.50;99.90
62424;DHT22;48463;43.604;3.872;2023-06-10T10:07:11;25.50;99.90
62424;DHT22;48463;43.604;3.872;2023-06-10T10:09:37;26.00;99.90
62424;DHT22;48463;43.604;3.872;2023-06-10T10:12:10;25.70;99.90
62424;DHT22;48463;43.604;3.872;2023-06-10T10:14:38;25.70;99.90
62424;DHT22;48463;43.604;3.872;2023-06-10T10:17:09;25.60;99.90
62424;DHT22;48463;43.604;3.872;2023-06-10T10:19:43;25.70;99.90
62424;DHT22;48463;43.604;3.872;2023-06-10T10:22:19;25.70;99.90
62424;DHT22;48463;43.604;3.872;2023-06-10T10:24:56;25.60;99.90
62424;DHT22;48463;43.604;3.872;2023-06-10T10:28:02;25.40;99.90
62424;DHT22;48463;43.604;3.872;2023-06-10T10:30:30;25.70;99.90
62424;DHT22;48463;43.604;3.872;2023-06-10T10:33:18;25.60;99.90
62424;DHT22;48463;43.604;3.872;2023-06-10T10:35:47;25.90;99.90
62424;DHT22;48463;43.604;3.872;2023-06-10T10:38:14;26.00;99.90
62424;DHT22;48463;43.604;3.872;2023-06-10T10:40:41;26.50;99.90
62424;DHT22;48463;43.604;3.872;2023-06-10T10:43:09;26.80;99.90
62424;DHT22;48463;43.604;3.872;2023-06-10T10:45:35;27.10;99.90
62424;DHT22;48463;43.604;3.872;2023-06-10T10:48:07;26.80;99.90
62424;DHT22;48463;43.604;3.872;2023-06-10T10:50:35;26.70;99.90
62424;DHT22;48463;43.604;3.872;2023-06-10T10:53:05;26.80;99.90
62424;DHT22;48463;43.604;3.872;2023-06-10T10:55:32;27.20;99.90
62424;DHT22;48463;43.604;3.872;2023-06-10T10:58:03;27.10;99.90
62424;DHT22;48463;43.604;3.872;2023-06-10T11:00:30;26.90;99.90
62424;DHT22;48463;43.604;3.872;2023-06-10T11:03:07;26.70;99.90
62424;DHT22;48463;43.604;3.872;2023-06-10T11:05:47;26.70;99.90
62424;DHT22;48463;43.604;3.872;2023-06-10T11:08:15;26.90;99.90
62424;DHT22;48463;43.604;3.872;2023-06-10T11:10:50;27.20;99.90
62424;DHT22;48463;43.604;3.872;2023-06-10T11:13:19;26.90;99.90
62424;DHT22;48463;43.604;3.872;2023-06-10T11:15:50;27.00;99.90
62424;DHT22;48463;43.604;3.872;2023-06-10T11:18:38;26.80;99.90
62424;DHT22;48463;43.604;3.872;2023-06-10T11:21:05;27.00;99.90
62424;DHT22;48463;43.604;3.872;2023-06-10T11:23:40;26.80;99.90
62424;DHT22;48463;43.604;3.872;2023-06-10T11:31:19;26.50;99.90
62424;DHT22;48463;43.604;3.872;2023-06-10T11:33:47;26.20;99.90
62424;DHT22;48463;43.604;3.872;2023-06-10T11:36:14;26.10;99.90
62424;DHT22;48463;43.604;3.872;2023-06-10T11:38:43;26.10;99.90
62424;DHT22;48463;43.604;3.872;2023-06-10T11:41:13;26.10;99.90
62424;DHT22;48463;43.604;3.872;2023-06-10T11:43:46;25.80;99.90
62424;DHT22;48463;43.604;3.872;2023-06-10T11:46:15;26.00;99.90
62424;DHT22;48463;43.604;3.872;2023-06-10T11:49:01;26.80;99.90
62424;DHT22;48463;43.604;3.872;2023-06-10T11:51:33;27.00;99.90
62424;DHT22;48463;43.604;3.872;2023-06-10T11:54:02;26.40;99.90
62424;DHT22;48463;43.604;3.872;2023-06-10T11:56:32;26.80;99.90
62424;DHT22;48463;43.604;3.872;2023-06-10T11:58:58;26.70;99.90
62424;DHT22;48463;43.604;3.872;2023-06-10T12:01:30;26.90;99.90
62424;DHT22;48463;43.604;3.872;2023-06-10T12:03:58;27.00;99.90
62424;DHT22;48463;43.604;3.872;2023-06-10T12:06:24;26.70;99.90
62424;DHT22;48463;43.604;3.872;2023-06-10T12:08:50;26.50;99.90
62424;DHT22;48463;43.604;3.872;2023-06-10T12:11:15;27.10;99.90
62424;DHT22;48463;43.604;3.872;2023-06-10T12:13:48;27.40;99.90
62424;DHT22;48463;43.604;3.872;2023-06-10T12:16:15;27.40;99.90
62424;DHT22;48463;43.604;3.872;2023-06-10T12:18:43;27.40;99.90
62424;DHT22;48463;43.604;3.872;2023-06-10T12:21:17;27.60;99.90
62424;DHT22;48463;43.604;3.872;2023-06-10T12:24:06;27.40;99.90
62424;DHT22;48463;43.604;3.872;2023-06-10T12:29:22;27.80;99.90
62424;DHT22;48463;43.604;3.872;2023-06-10T12:32:16;27.80;99.90
62424;DHT22;48463;43.604;3.872;2023-06-10T12:34:42;27.90;99.90
62424;DHT22;48463;43.604;3.872;2023-06-10T12:37:12;27.90;99.90
62424;DHT22;48463;43.604;3.872;2023-06-10T12:39:39;28.00;99.90
62424;DHT22;48463;43.604;3.872;2023-06-10T12:42:05;27.80;99.90
62424;DHT22;48463;43.604;3.872;2023-06-10T12:44:39;27.70;99.90
62424;DHT22;48463;43.604;3.872;2023-06-10T12:47:10;27.70;99.90
62424;DHT22;48463;43.604;3.872;2023-06-10T12:49:38;27.40;99.90
62424;DHT22;48463;43.604;3.872;2023-06-10T12:52:05;27.80;99.90
62424;DHT22;48463;43.604;3.872;2023-06-10T12:54:30;28.10;99.90
62424;DHT22;48463;43.604;3.872;2023-06-10T12:56:58;27.70;99.90
62424;DHT22;48463;43.604;3.872;2023-06-10T12:59:24;27.60;99.90
62424;DHT22;48463;43.604;3.872;2023-06-10T13:01:51;27.60;99.90
62424;DHT22;48463;43.604;3.872;2023-06-10T13:04:17;28.30;99.90
62424;DHT22;48463;43.604;3.872;2023-06-10T13:06:43;28.20;99.90
62424;DHT22;48463;43.604;3.872;2023-06-10T13:09:09;27.20;99.90
62424;DHT22;48463;43.604;3.872;2023-06-10T13:11:36;26.80;99.90
62424;DHT22;48463;43.604;3.872;2023-06-10T13:14:03;27.20;99.90
62424;DHT22;48463;43.604;3.872;2023-06-10T13:16:31;27.80;99.90
62424;DHT22;48463;43.604;3.872;2023-06-10T13:18:57;27.60;99.90
62424;DHT22;48463;43.604;3.872;2023-06-10T13:21:23;27.60;99.90
62424;DHT22;48463;43.604;3.872;2023-06-10T13:23:50;27.40;99.90
62424;DHT22;48463;43.604;3.872;2023-06-10T13:26:17;27.40;99.90
62424;DHT22;48463;43.604;3.872;2023-06-10T13:28:44;27.10;99.90
62424;DHT22;48463;43.604;3.872;2023-06-10T13:31:10;26.60;99.90
62424;DHT22;48463;43.604;3.872;2023-06-10T13:33:36;26.40;99.90
62424;DHT22;48463;43.604;3.872;2023-06-10T13:36:01;26.20;99.90
62424;DHT22;48463;43.604;3.872;2023-06-10T13:38:28;26.70;99.90
62424;DHT22;48463;43.604;3.872;2023-06-10T13:40:57;27.00;99.90
62424;DHT22;48463;43.604;3.872;2023-06-10T13:43:23;26.70;99.90
62424;DHT22;48463;43.604;3.872;2023-06-10T13:45:50;26.70;99.90
62424;DHT22;48463;43.604;3.872;2023-06-10T13:48:20;26.30;99.90
62424;DHT22;48463;43.604;3.872;2023-06-10T13:50:47;26.10;99.90
62424;DHT22;48463;43.604;3.872;2023-06-10T13:53:12;25.80;99.90
62424;DHT22;48463;43.604;3.872;2023-06-10T13:55:39;25.70;99.90
62424;DHT22;48463;43.604;3.872;2023-06-10T13:58:05;25.60;99.90
62424;DHT22;48463;43.604;3.872;2023-06-10T14:00:30;25.40;99.90
62424;DHT22;48463;43.604;3.872;2023-06-10T14:02:56;25.40;99.90
62424;DHT22;48463;43.604;3.872;2023-06-10T14:05:22;25.30;99.90
62424;DHT22;48463;43.604;3.872;2023-06-10T14:07:48;25.30;99.90
62424;DHT22;48463;43.604;3.872;2023-06-10T14:10:14;25.20;99.90
62424;DHT22;48463;43.604;3.872;2023-06-10T14:12:41;25.00;99.90
62424;DHT22;48463;43.604;3.872;2023-06-10T14:15:07;25.10;99.90
62424;DHT22;48463;43.604;3.872;2023-06-10T14:17:33;25.70;99.90
62424;DHT22;48463;43.604;3.872;2023-06-10T14:19:59;26.40;99.90
62424;DHT22;48463;43.604;3.872;2023-06-10T14:22:24;26.40;99.90
62424;DHT22;48463;43.604;3.872;2023-06-10T14:24:50;26.80;99.90
62424;DHT22;48463;43.604;3.872;2023-06-10T14:27:16;26.70;99.90
62424;DHT22;48463;43.604;3.872;2023-06-10T14:29:41;26.80;99.90
62424;DHT22;48463;43.604;3.872;2023-06-10T14:32:07;27.40;99.90
62424;DHT22;48463;43.604;3.872;2023-06-10T14:34:33;27.70;99.90
62424;DHT22;48463;43.604;3.872;2023-06-10T14:37:02;27.40;99.90
62424;DHT22;48463;43.604;3.872;2023-06-10T14:39:29;27.00;99.90
62424;DHT22;48463;43.604;3.872;2023-06-10T14:41:55;26.80;99.90
62424;DHT22;48463;43.604;3.872;2023-06-10T14:44:20;26.90;99.90
62424;DHT22;48463;43.604;3.872;2023-06-10T14:46:46;27.60;99.90
62424;DHT22;48463;43.604;3.872;2023-06-10T14:49:12;27.90;99.90
62424;DHT22;48463;43.604;3.872;2023-06-10T14:51:40;28.20;99.90
62424;DHT22;48463;43.604;3.872;2023-06-10T14:54:07;27.60;99.90
62424;DHT22;48463;43.604;3.872;2023-06-10T14:56:32;27.80;99.90
62424;DHT22;48463;43.604;3.872;2023-06-10T14:58:59;29.30;99.90
62424;DHT22;48463;43.604;3.872;2023-06-10T15:01:25;32.60;99.60
62424;DHT22;48463;43.604;3.872;2023-06-10T15:03:50;33.10;97.70
62424;DHT22;48463;43.604;3.872;2023-06-10T15:06:16;29.90;99.90
62424;DHT22;48463;43.604;3.872;2023-06-10T15:08:46;28.30;99.90
62424;DHT22;48463;43.604;3.872;2023-06-10T15:11:14;28.00;99.90
62424;DHT22;48463;43.604;3.872;2023-06-10T15:13:40;28.00;99.90
62424;DHT22;48463;43.604;3.872;2023-06-10T15:16:06;27.60;99.90
62424;DHT22;48463;43.604;3.872;2023-06-10T15:18:32;28.20;99.90
62424;DHT22;48463;43.604;3.872;2023-06-10T15:20:59;28.50;99.90
62424;DHT22;48463;43.604;3.872;2023-06-10T15:23:25;28.90;99.90
62424;DHT22;48463;43.604;3.872;2023-06-10T15:25:52;29.50;99.90
62424;DHT22;48463;43.604;3.872;2023-06-10T15:28:18;29.70;99.90
62424;DHT22;48463;43.604;3.872;2023-06-10T15:30:43;29.60;99.90
62424;DHT22;48463;43.604;3.872;2023-06-10T15:33:09;29.00;99.90
62424;DHT22;48463;43.604;3.872;2023-06-10T15:35:34;28.80;99.90
62424;DHT22;48463;43.604;3.872;2023-06-10T15:38:00;28.00;99.90
62424;DHT22;48463;43.604;3.872;2023-06-10T15:40:27;27.60;99.90
62424;DHT22;48463;43.604;3.872;2023-06-10T15:42:54;27.10;99.90